Swayzee, Indiana
Current Conditions -  °F | °C
As of 5:55 PM on Tuesday 21 Oct 2014 (Local Time) from KMZZ Reporting Station
Overcast Overcast  
Wind Chill: 52°   Ceiling: 4900
Heat Index: 52°   Visibility: 10mi
Dew Point: 41°   Wind: 7mph
Humidity: 66%   Direction: 360°N
Pressure: 30.13"   Gusts: NA
Location:  40.51°N, 85.83°W
Report Text: KMZZ 212155Z AUTO 36006KT 10SM OVC049 11/05 A3013 RMK AO2 T01100049
Loading
Personal Weather Stations






























Interactive Weather Map
Tropical Storm Tracking
New forecast layout! Learn more

10-Day Weather Forecast

Advertisements
Track Severe Weather on mobile